sensor_id;sensor_type;location;lat;lon;timestamp;P1;durP1;ratioP1;P2;durP2;ratioP2
5704;SDS011;2877;48.238;11.160;2022-08-05T00:00:59;4.87;;;4.37;;
5704;SDS011;2877;48.238;11.160;2022-08-05T00:03:24;4.20;;;3.83;;
5704;SDS011;2877;48.238;11.160;2022-08-05T00:05:50;4.60;;;3.77;;
5704;SDS011;2877;48.238;11.160;2022-08-05T00:08:16;7.87;;;3.90;;
5704;SDS011;2877;48.238;11.160;2022-08-05T00:10:41;4.60;;;4.20;;
5704;SDS011;2877;48.238;11.160;2022-08-05T00:13:07;4.00;;;3.70;;
5704;SDS011;2877;48.238;11.160;2022-08-05T00:15:32;4.40;;;3.97;;
5704;SDS011;2877;48.238;11.160;2022-08-05T00:17:58;4.50;;;4.10;;
5704;SDS011;2877;48.238;11.160;2022-08-05T00:20:24;4.23;;;3.83;;
5704;SDS011;2877;48.238;11.160;2022-08-05T00:22:50;6.30;;;3.97;;
5704;SDS011;2877;48.238;11.160;2022-08-05T00:25:15;4.47;;;4.07;;
5704;SDS011;2877;48.238;11.160;2022-08-05T00:27:41;4.73;;;4.27;;
5704;SDS011;2877;48.238;11.160;2022-08-05T00:30:07;8.50;;;3.90;;
5704;SDS011;2877;48.238;11.160;2022-08-05T00:32:33;4.37;;;3.67;;
5704;SDS011;2877;48.238;11.160;2022-08-05T00:34:58;4.37;;;3.97;;
5704;SDS011;2877;48.238;11.160;2022-08-05T00:37:24;4.63;;;3.70;;
5704;SDS011;2877;48.238;11.160;2022-08-05T00:39:49;6.30;;;4.17;;
5704;SDS011;2877;48.238;11.160;2022-08-05T00:42:25;5.30;;;4.50;;
5704;SDS011;2877;48.238;11.160;2022-08-05T00:44:54;4.90;;;4.40;;
5704;SDS011;2877;48.238;11.160;2022-08-05T00:47:19;4.67;;;4.27;;
5704;SDS011;2877;48.238;11.160;2022-08-05T00:49:45;6.20;;;3.97;;
5704;SDS011;2877;48.238;11.160;2022-08-05T00:52:10;5.80;;;4.03;;
5704;SDS011;2877;48.238;11.160;2022-08-05T00:54:36;4.43;;;4.03;;
5704;SDS011;2877;48.238;11.160;2022-08-05T00:57:01;4.40;;;4.10;;
5704;SDS011;2877;48.238;11.160;2022-08-05T00:59:27;4.47;;;4.07;;
5704;SDS011;2877;48.238;11.160;2022-08-05T01:01:52;4.17;;;3.80;;
5704;SDS011;2877;48.238;11.160;2022-08-05T01:04:18;9.13;;;4.10;;
5704;SDS011;2877;48.238;11.160;2022-08-05T01:06:43;4.43;;;3.93;;
5704;SDS011;2877;48.238;11.160;2022-08-05T01:09:11;4.73;;;4.30;;
5704;SDS011;2877;48.238;11.160;2022-08-05T01:11:37;6.10;;;4.17;;
5704;SDS011;2877;48.238;11.160;2022-08-05T01:14:05;5.13;;;4.53;;
5704;SDS011;2877;48.238;11.160;2022-08-05T01:16:39;4.87;;;4.37;;
5704;SDS011;2877;48.238;11.160;2022-08-05T01:30:33;6.00;;;4.17;;
5704;SDS011;2877;48.238;11.160;2022-08-05T01:33:05;4.20;;;3.80;;
5704;SDS011;2877;48.238;11.160;2022-08-05T01:35:33;5.77;;;3.40;;
5704;SDS011;2877;48.238;11.160;2022-08-05T01:38:01;3.60;;;3.40;;
5704;SDS011;2877;48.238;11.160;2022-08-05T01:40:29;3.90;;;3.60;;
5704;SDS011;2877;48.238;11.160;2022-08-05T01:42:56;4.43;;;4.00;;
5704;SDS011;2877;48.238;11.160;2022-08-05T01:45:27;4.30;;;3.90;;
5704;SDS011;2877;48.238;11.160;2022-08-05T01:47:54;4.20;;;3.80;;
5704;SDS011;2877;48.238;11.160;2022-08-05T01:50:23;4.20;;;3.90;;
5704;SDS011;2877;48.238;11.160;2022-08-05T01:52:51;5.43;;;3.80;;
5704;SDS011;2877;48.238;11.160;2022-08-05T01:55:18;5.00;;;3.73;;
5704;SDS011;2877;48.238;11.160;2022-08-05T01:57:46;4.20;;;3.90;;
5704;SDS011;2877;48.238;11.160;2022-08-05T02:00:14;4.60;;;3.90;;
5704;SDS011;2877;48.238;11.160;2022-08-05T02:02:40;4.37;;;3.90;;
5704;SDS011;2877;48.238;11.160;2022-08-05T02:05:10;4.40;;;4.00;;
5704;SDS011;2877;48.238;11.160;2022-08-05T02:07:37;4.60;;;4.20;;
5704;SDS011;2877;48.238;11.160;2022-08-05T02:10:04;4.43;;;4.00;;
5704;SDS011;2877;48.238;11.160;2022-08-05T02:18:01;4.50;;;4.10;;
5704;SDS011;2877;48.238;11.160;2022-08-05T02:20:31;7.83;;;3.90;;
5704;SDS011;2877;48.238;11.160;2022-08-05T02:23:04;4.40;;;3.93;;
5704;SDS011;2877;48.238;11.160;2022-08-05T02:25:35;4.10;;;3.70;;
5704;SDS011;2877;48.238;11.160;2022-08-05T02:28:02;3.53;;;3.23;;
5704;SDS011;2877;48.238;11.160;2022-08-05T02:30:31;5.73;;;3.97;;
5704;SDS011;2877;48.238;11.160;2022-08-05T02:33:09;3.80;;;3.50;;
5704;SDS011;2877;48.238;11.160;2022-08-05T02:35:39;6.50;;;4.60;;
5704;SDS011;2877;48.238;11.160;2022-08-05T02:38:06;3.73;;;3.43;;
5704;SDS011;2877;48.238;11.160;2022-08-05T02:40:34;8.70;;;3.80;;
5704;SDS011;2877;48.238;11.160;2022-08-05T02:43:01;4.43;;;4.03;;
5704;SDS011;2877;48.238;11.160;2022-08-05T02:45:26;7.70;;;4.07;;
5704;SDS011;2877;48.238;11.160;2022-08-05T02:47:53;4.43;;;4.03;;
5704;SDS011;2877;48.238;11.160;2022-08-05T02:50:21;4.53;;;4.23;;
5704;SDS011;2877;48.238;11.160;2022-08-05T02:52:48;6.60;;;4.53;;
5704;SDS011;2877;48.238;11.160;2022-08-05T02:55:15;9.27;;;4.00;;
5704;SDS011;2877;48.238;11.160;2022-08-05T02:57:41;3.83;;;3.53;;
5704;SDS011;2877;48.238;11.160;2022-08-05T03:00:08;4.37;;;3.97;;
5704;SDS011;2877;48.238;11.160;2022-08-05T03:02:37;5.10;;;4.20;;
5704;SDS011;2877;48.238;11.160;2022-08-05T03:05:05;8.73;;;4.23;;
5704;SDS011;2877;48.238;11.160;2022-08-05T03:07:33;4.00;;;3.60;;
5704;SDS011;2877;48.238;11.160;2022-08-05T03:09:59;3.97;;;3.67;;
5704;SDS011;2877;48.238;11.160;2022-08-05T03:12:32;4.30;;;3.60;;
5704;SDS011;2877;48.238;11.160;2022-08-05T03:14:59;4.20;;;3.90;;
5704;SDS011;2877;48.238;11.160;2022-08-05T03:17:25;4.57;;;4.00;;
5704;SDS011;2877;48.238;11.160;2022-08-05T03:19:51;4.43;;;4.07;;
5704;SDS011;2877;48.238;11.160;2022-08-05T03:22:16;3.60;;;3.30;;
5704;SDS011;2877;48.238;11.160;2022-08-05T03:24:46;3.50;;;3.30;;
5704;SDS011;2877;48.238;11.160;2022-08-05T03:27:12;3.80;;;3.50;;
5704;SDS011;2877;48.238;11.160;2022-08-05T03:29:39;4.70;;;3.77;;
5704;SDS011;2877;48.238;11.160;2022-08-05T03:32:05;4.43;;;4.03;;
5704;SDS011;2877;48.238;11.160;2022-08-05T03:34:32;3.73;;;3.37;;
5704;SDS011;2877;48.238;11.160;2022-08-05T03:36:59;5.00;;;3.57;;
5704;SDS011;2877;48.238;11.160;2022-08-05T03:39:26;4.07;;;3.40;;
5704;SDS011;2877;48.238;11.160;2022-08-05T03:41:52;3.93;;;3.63;;
5704;SDS011;2877;48.238;11.160;2022-08-05T03:44:17;4.10;;;3.80;;
5704;SDS011;2877;48.238;11.160;2022-08-05T03:46:43;4.37;;;3.97;;
5704;SDS011;2877;48.238;11.160;2022-08-05T03:49:08;4.63;;;4.07;;
5704;SDS011;2877;48.238;11.160;2022-08-05T03:51:35;4.67;;;3.73;;
5704;SDS011;2877;48.238;11.160;2022-08-05T03:54:07;4.00;;;3.70;;
5704;SDS011;2877;48.238;11.160;2022-08-05T03:56:39;5.93;;;3.70;;
5704;SDS011;2877;48.238;11.160;2022-08-05T03:59:17;4.60;;;4.20;;
5704;SDS011;2877;48.238;11.160;2022-08-05T04:01:48;3.63;;;3.43;;
5704;SDS011;2877;48.238;11.160;2022-08-05T04:04:15;3.77;;;3.50;;
5704;SDS011;2877;48.238;11.160;2022-08-05T04:06:42;4.03;;;3.73;;
5704;SDS011;2877;48.238;11.160;2022-08-05T04:09:08;3.83;;;3.50;;
5704;SDS011;2877;48.238;11.160;2022-08-05T04:11:34;3.90;;;3.60;;
5704;SDS011;2877;48.238;11.160;2022-08-05T04:14:01;5.17;;;3.40;;
5704;SDS011;2877;48.238;11.160;2022-08-05T04:16:27;5.77;;;3.23;;
5704;SDS011;2877;48.238;11.160;2022-08-05T04:18:53;3.87;;;3.57;;
5704;SDS011;2877;48.238;11.160;2022-08-05T04:21:19;3.63;;;3.37;;
5704;SDS011;2877;48.238;11.160;2022-08-05T04:23:44;4.23;;;3.40;;
5704;SDS011;2877;48.238;11.160;2022-08-05T04:26:11;4.97;;;3.53;;
5704;SDS011;2877;48.238;11.160;2022-08-05T04:28:38;4.30;;;3.57;;
5704;SDS011;2877;48.238;11.160;2022-08-05T04:31:04;4.00;;;3.70;;
5704;SDS011;2877;48.238;11.160;2022-08-05T04:33:29;3.53;;;3.23;;
5704;SDS011;2877;48.238;11.160;2022-08-05T04:35:55;3.20;;;2.97;;
5704;SDS011;2877;48.238;11.160;2022-08-05T04:38:21;3.93;;;3.20;;
5704;SDS011;2877;48.238;11.160;2022-08-05T04:40:46;7.50;;;3.27;;
5704;SDS011;2877;48.238;11.160;2022-08-05T04:43:12;4.87;;;3.10;;
5704;SDS011;2877;48.238;11.160;2022-08-05T04:45:37;6.63;;;3.47;;
5704;SDS011;2877;48.238;11.160;2022-08-05T04:48:04;6.43;;;4.00;;
5704;SDS011;2877;48.238;11.160;2022-08-05T04:50:31;3.20;;;2.97;;
5704;SDS011;2877;48.238;11.160;2022-08-05T04:53:10;3.30;;;3.10;;
5704;SDS011;2877;48.238;11.160;2022-08-05T04:55:37;4.13;;;3.63;;
5704;SDS011;2877;48.238;11.160;2022-08-05T04:58:04;5.43;;;3.30;;
5704;SDS011;2877;48.238;11.160;2022-08-05T05:00:31;3.93;;;3.63;;
5704;SDS011;2877;48.238;11.160;2022-08-05T05:02:57;4.77;;;3.23;;
5704;SDS011;2877;48.238;11.160;2022-08-05T05:05:23;3.30;;;3.10;;
5704;SDS011;2877;48.238;11.160;2022-08-05T05:07:49;3.60;;;3.30;;
5704;SDS011;2877;48.238;11.160;2022-08-05T05:10:15;3.40;;;3.10;;
5704;SDS011;2877;48.238;11.160;2022-08-05T05:12:40;4.67;;;3.03;;
5704;SDS011;2877;48.238;11.160;2022-08-05T05:15:06;4.07;;;3.50;;
5704;SDS011;2877;48.238;11.160;2022-08-05T05:17:39;3.90;;;3.30;;
5704;SDS011;2877;48.238;11.160;2022-08-05T05:20:07;2.93;;;2.63;;
5704;SDS011;2877;48.238;11.160;2022-08-05T05:22:34;2.93;;;2.67;;
5704;SDS011;2877;48.238;11.160;2022-08-05T05:24:59;3.87;;;3.50;;
5704;SDS011;2877;48.238;11.160;2022-08-05T05:27:26;3.73;;;3.10;;
5704;SDS011;2877;48.238;11.160;2022-08-05T05:29:52;3.10;;;2.80;;
5704;SDS011;2877;48.238;11.160;2022-08-05T05:32:17;4.23;;;2.90;;
5704;SDS011;2877;48.238;11.160;2022-08-05T05:34:43;4.83;;;2.93;;
5704;SDS011;2877;48.238;11.160;2022-08-05T05:37:08;5.23;;;3.33;;
5704;SDS011;2877;48.238;11.160;2022-08-05T05:39:36;3.37;;;3.07;;
5704;SDS011;2877;48.238;11.160;2022-08-05T05:42:02;3.07;;;2.87;;
5704;SDS011;2877;48.238;11.160;2022-08-05T05:44:28;2.97;;;2.77;;
5704;SDS011;2877;48.238;11.160;2022-08-05T05:46:53;3.27;;;3.07;;
5704;SDS011;2877;48.238;11.160;2022-08-05T05:49:19;11.53;;;3.03;;
5704;SDS011;2877;48.238;11.160;2022-08-05T05:51:44;3.63;;;2.90;;
5704;SDS011;2877;48.238;11.160;2022-08-05T05:54:10;2.93;;;2.70;;
5704;SDS011;2877;48.238;11.160;2022-08-05T05:56:35;3.83;;;3.53;;
5704;SDS011;2877;48.238;11.160;2022-08-05T05:59:02;2.80;;;2.60;;
5704;SDS011;2877;48.238;11.160;2022-08-05T06:01:30;2.93;;;2.73;;
5704;SDS011;2877;48.238;11.160;2022-08-05T06:03:56;3.17;;;2.87;;
5704;SDS011;2877;48.238;11.160;2022-08-05T06:06:21;5.37;;;2.87;;
5704;SDS011;2877;48.238;11.160;2022-08-05T06:08:47;3.50;;;3.20;;
5704;SDS011;2877;48.238;11.160;2022-08-05T06:11:12;2.97;;;2.77;;
5704;SDS011;2877;48.238;11.160;2022-08-05T06:13:38;3.30;;;2.77;;
5704;SDS011;2877;48.238;11.160;2022-08-05T06:16:03;3.40;;;3.10;;
5704;SDS011;2877;48.238;11.160;2022-08-05T06:18:29;3.23;;;3.03;;
5704;SDS011;2877;48.238;11.160;2022-08-05T06:20:54;4.17;;;3.30;;
5704;SDS011;2877;48.238;11.160;2022-08-05T06:23:20;3.20;;;3.00;;
5704;SDS011;2877;48.238;11.160;2022-08-05T06:25:45;4.13;;;3.07;;
5704;SDS011;2877;48.238;11.160;2022-08-05T06:28:11;3.80;;;2.60;;
5704;SDS011;2877;48.238;11.160;2022-08-05T06:30:36;3.60;;;3.20;;
5704;SDS011;2877;48.238;11.160;2022-08-05T06:33:02;4.27;;;3.03;;
5704;SDS011;2877;48.238;11.160;2022-08-05T06:35:27;3.57;;;3.00;;
5704;SDS011;2877;48.238;11.160;2022-08-05T06:37:53;6.73;;;3.00;;
5704;SDS011;2877;48.238;11.160;2022-08-05T06:40:19;6.73;;;3.00;;
5704;SDS011;2877;48.238;11.160;2022-08-05T06:42:44;6.13;;;3.10;;
5704;SDS011;2877;48.238;11.160;2022-08-05T06:45:10;4.03;;;3.50;;
5704;SDS011;2877;48.238;11.160;2022-08-05T06:47:35;3.00;;;2.80;;
5704;SDS011;2877;48.238;11.160;2022-08-05T06:50:01;6.20;;;3.07;;
5704;SDS011;2877;48.238;11.160;2022-08-05T06:52:26;7.23;;;3.27;;
5704;SDS011;2877;48.238;11.160;2022-08-05T06:54:52;4.23;;;2.90;;
5704;SDS011;2877;48.238;11.160;2022-08-05T06:57:17;3.43;;;3.00;;
5704;SDS011;2877;48.238;11.160;2022-08-05T06:59:43;4.83;;;3.20;;
5704;SDS011;2877;48.238;11.160;2022-08-05T07:02:09;3.70;;;3.40;;
5704;SDS011;2877;48.238;11.160;2022-08-05T07:04:35;3.60;;;3.30;;
5704;SDS011;2877;48.238;11.160;2022-08-05T07:07:00;4.10;;;3.67;;
5704;SDS011;2877;48.238;11.160;2022-08-05T07:09:26;4.50;;;3.60;;
5704;SDS011;2877;48.238;11.160;2022-08-05T07:11:51;6.50;;;2.90;;
5704;SDS011;2877;48.238;11.160;2022-08-05T07:14:19;3.20;;;3.00;;
5704;SDS011;2877;48.238;11.160;2022-08-05T07:17:03;4.80;;;3.53;;
5704;SDS011;2877;48.238;11.160;2022-08-05T07:19:29;4.73;;;3.47;;
5704;SDS011;2877;48.238;11.160;2022-08-05T07:24:48;6.43;;;3.30;;
5704;SDS011;2877;48.238;11.160;2022-08-05T07:27:13;3.97;;;3.57;;
5704;SDS011;2877;48.238;11.160;2022-08-05T07:29:39;4.10;;;3.67;;
5704;SDS011;2877;48.238;11.160;2022-08-05T07:32:05;5.87;;;3.70;;
5704;SDS011;2877;48.238;11.160;2022-08-05T07:34:31;3.80;;;3.50;;
5704;SDS011;2877;48.238;11.160;2022-08-05T07:36:56;4.33;;;3.70;;
5704;SDS011;2877;48.238;11.160;2022-08-05T07:39:22;3.43;;;3.13;;
5704;SDS011;2877;48.238;11.160;2022-08-05T07:41:47;4.00;;;3.60;;
5704;SDS011;2877;48.238;11.160;2022-08-05T07:44:13;4.20;;;3.40;;
5704;SDS011;2877;48.238;11.160;2022-08-05T07:46:38;4.13;;;3.70;;
5704;SDS011;2877;48.238;11.160;2022-08-05T07:49:04;3.93;;;3.53;;
5704;SDS011;2877;48.238;11.160;2022-08-05T07:51:30;6.70;;;3.50;;
5704;SDS011;2877;48.238;11.160;2022-08-05T07:53:57;7.33;;;4.20;;
5704;SDS011;2877;48.238;11.160;2022-08-05T07:56:22;5.23;;;3.70;;
5704;SDS011;2877;48.238;11.160;2022-08-05T07:58:48;4.43;;;4.00;;
5704;SDS011;2877;48.238;11.160;2022-08-05T08:01:13;4.93;;;3.60;;
5704;SDS011;2877;48.238;11.160;2022-08-05T08:03:39;3.93;;;3.60;;
5704;SDS011;2877;48.238;11.160;2022-08-05T08:06:05;3.97;;;3.53;;
5704;SDS011;2877;48.238;11.160;2022-08-05T08:08:30;10.07;;;3.57;;
5704;SDS011;2877;48.238;11.160;2022-08-05T08:10:56;5.77;;;4.10;;
5704;SDS011;2877;48.238;11.160;2022-08-05T08:13:21;7.73;;;3.57;;
5704;SDS011;2877;48.238;11.160;2022-08-05T08:15:47;4.10;;;3.40;;
5704;SDS011;2877;48.238;11.160;2022-08-05T08:18:12;3.93;;;3.40;;
5704;SDS011;2877;48.238;11.160;2022-08-05T08:20:38;4.43;;;3.50;;
5704;SDS011;2877;48.238;11.160;2022-08-05T08:23:03;7.10;;;3.60;;
5704;SDS011;2877;48.238;11.160;2022-08-05T08:25:31;7.40;;;3.60;;
5704;SDS011;2877;48.238;11.160;2022-08-05T08:27:57;12.40;;;3.80;;
5704;SDS011;2877;48.238;11.160;2022-08-05T08:30:23;5.10;;;3.50;;
5704;SDS011;2877;48.238;11.160;2022-08-05T08:32:49;9.00;;;3.90;;
5704;SDS011;2877;48.238;11.160;2022-08-05T08:35:14;5.47;;;3.90;;
5704;SDS011;2877;48.238;11.160;2022-08-05T08:37:40;3.93;;;3.63;;
5704;SDS011;2877;48.238;11.160;2022-08-05T08:40:05;12.10;;;4.10;;
5704;SDS011;2877;48.238;11.160;2022-08-05T08:42:31;6.13;;;3.97;;
5704;SDS011;2877;48.238;11.160;2022-08-05T08:44:57;11.40;;;3.50;;
5704;SDS011;2877;48.238;11.160;2022-08-05T08:47:24;4.40;;;3.40;;
5704;SDS011;2877;48.238;11.160;2022-08-05T08:49:51;5.80;;;3.30;;
5704;SDS011;2877;48.238;11.160;2022-08-05T08:52:24;3.50;;;3.10;;
5704;SDS011;2877;48.238;11.160;2022-08-05T08:54:54;4.50;;;3.63;;
5704;SDS011;2877;48.238;11.160;2022-08-05T08:57:21;4.30;;;3.43;;
5704;SDS011;2877;48.238;11.160;2022-08-05T08:59:47;5.60;;;3.27;;
5704;SDS011;2877;48.238;11.160;2022-08-05T09:02:13;5.10;;;3.10;;
5704;SDS011;2877;48.238;11.160;2022-08-05T09:04:41;8.40;;;3.30;;
5704;SDS011;2877;48.238;11.160;2022-08-05T09:07:09;6.43;;;3.07;;
5704;SDS011;2877;48.238;11.160;2022-08-05T09:09:35;10.13;;;3.37;;
5704;SDS011;2877;48.238;11.160;2022-08-05T09:12:05;5.60;;;2.90;;
5704;SDS011;2877;48.238;11.160;2022-08-05T09:14:33;4.97;;;3.50;;
5704;SDS011;2877;48.238;11.160;2022-08-05T09:17:00;4.00;;;3.10;;
5704;SDS011;2877;48.238;11.160;2022-08-05T09:19:26;5.00;;;3.73;;
5704;SDS011;2877;48.238;11.160;2022-08-05T09:21:52;5.97;;;3.80;;
5704;SDS011;2877;48.238;11.160;2022-08-05T09:24:18;11.43;;;3.30;;
5704;SDS011;2877;48.238;11.160;2022-08-05T09:26:47;7.20;;;3.00;;
5704;SDS011;2877;48.238;11.160;2022-08-05T09:29:15;21.50;;;4.23;;
5704;SDS011;2877;48.238;11.160;2022-08-05T09:31:41;6.80;;;3.70;;
5704;SDS011;2877;48.238;11.160;2022-08-05T09:34:08;8.87;;;3.37;;
5704;SDS011;2877;48.238;11.160;2022-08-05T09:39:15;8.00;;;3.47;;
5704;SDS011;2877;48.238;11.160;2022-08-05T09:41:54;3.83;;;2.93;;
5704;SDS011;2877;48.238;11.160;2022-08-05T09:47:11;9.20;;;3.20;;
5704;SDS011;2877;48.238;11.160;2022-08-05T09:50:01;5.30;;;3.20;;
5704;SDS011;2877;48.238;11.160;2022-08-05T09:52:27;6.10;;;3.07;;
5704;SDS011;2877;48.238;11.160;2022-08-05T09:57:32;5.20;;;2.97;;
5704;SDS011;2877;48.238;11.160;2022-08-05T09:59:58;4.13;;;2.30;;
5704;SDS011;2877;48.238;11.160;2022-08-05T10:02:47;6.40;;;3.50;;
5704;SDS011;2877;48.238;11.160;2022-08-05T10:05:15;6.90;;;2.47;;
5704;SDS011;2877;48.238;11.160;2022-08-05T10:10:26;8.33;;;2.83;;
5704;SDS011;2877;48.238;11.160;2022-08-05T10:12:57;8.23;;;2.87;;
5704;SDS011;2877;48.238;11.160;2022-08-05T10:15:26;4.67;;;2.90;;
5704;SDS011;2877;48.238;11.160;2022-08-05T10:23:09;7.60;;;2.63;;
5704;SDS011;2877;48.238;11.160;2022-08-05T10:25:36;5.20;;;2.50;;
5704;SDS011;2877;48.238;11.160;2022-08-05T10:28:02;5.73;;;2.40;;
5704;SDS011;2877;48.238;11.160;2022-08-05T10:30:27;5.23;;;2.43;;
5704;SDS011;2877;48.238;11.160;2022-08-05T10:32:55;2.90;;;2.40;;
5704;SDS011;2877;48.238;11.160;2022-08-05T10:35:23;3.70;;;2.53;;
5704;SDS011;2877;48.238;11.160;2022-08-05T10:37:49;4.10;;;2.30;;
5704;SDS011;2877;48.238;11.160;2022-08-05T10:40:17;11.00;;;2.53;;
5704;SDS011;2877;48.238;11.160;2022-08-05T10:45:54;4.77;;;2.40;;
5704;SDS011;2877;48.238;11.160;2022-08-05T10:48:31;3.73;;;2.50;;
5704;SDS011;2877;48.238;11.160;2022-08-05T10:51:04;2.50;;;2.17;;
5704;SDS011;2877;48.238;11.160;2022-08-05T10:53:42;4.13;;;2.30;;
5704;SDS011;2877;48.238;11.160;2022-08-05T11:01:31;2.80;;;2.53;;
5704;SDS011;2877;48.238;11.160;2022-08-05T11:04:15;3.80;;;2.43;;
5704;SDS011;2877;48.238;11.160;2022-08-05T11:09:28;2.93;;;2.07;;
5704;SDS011;2877;48.238;11.160;2022-08-05T11:12:04;4.47;;;1.90;;
5704;SDS011;2877;48.238;11.160;2022-08-05T11:17:39;5.67;;;2.40;;
5704;SDS011;2877;48.238;11.160;2022-08-05T11:20:06;2.73;;;2.13;;
5704;SDS011;2877;48.238;11.160;2022-08-05T11:22:52;3.57;;;2.50;;
5704;SDS011;2877;48.238;11.160;2022-08-05T11:25:36;6.13;;;1.73;;
5704;SDS011;2877;48.238;11.160;2022-08-05T11:36:10;2.10;;;1.90;;
5704;SDS011;2877;48.238;11.160;2022-08-05T11:41:22;4.60;;;2.17;;
5704;SDS011;2877;48.238;11.160;2022-08-05T11:43:52;4.10;;;2.20;;
5704;SDS011;2877;48.238;11.160;2022-08-05T11:46:26;3.67;;;2.10;;
5704;SDS011;2877;48.238;11.160;2022-08-05T11:48:56;2.30;;;2.10;;
5704;SDS011;2877;48.238;11.160;2022-08-05T11:51:23;1.63;;;1.50;;
5704;SDS011;2877;48.238;11.160;2022-08-05T11:53:49;2.23;;;2.13;;
5704;SDS011;2877;48.238;11.160;2022-08-05T11:56:15;6.20;;;1.90;;
5704;SDS011;2877;48.238;11.160;2022-08-05T11:58:42;3.70;;;3.17;;
5704;SDS011;2877;48.238;11.160;2022-08-05T12:01:12;3.03;;;1.70;;
5704;SDS011;2877;48.238;11.160;2022-08-05T12:03:53;5.93;;;2.07;;
5704;SDS011;2877;48.238;11.160;2022-08-05T12:06:23;6.23;;;2.20;;
5704;SDS011;2877;48.238;11.160;2022-08-05T12:08:55;4.17;;;1.90;;
5704;SDS011;2877;48.238;11.160;2022-08-05T12:11:27;2.30;;;2.10;;
5704;SDS011;2877;48.238;11.160;2022-08-05T12:13:55;1.90;;;1.80;;
5704;SDS011;2877;48.238;11.160;2022-08-05T12:16:27;1.90;;;1.80;;
5704;SDS011;2877;48.238;11.160;2022-08-05T12:18:55;2.00;;;1.90;;
5704;SDS011;2877;48.238;11.160;2022-08-05T12:24:00;2.63;;;1.63;;
5704;SDS011;2877;48.238;11.160;2022-08-05T12:26:32;3.00;;;1.90;;
5704;SDS011;2877;48.238;11.160;2022-08-05T12:28:59;2.70;;;1.70;;
5704;SDS011;2877;48.238;11.160;2022-08-05T12:31:25;1.60;;;1.50;;
5704;SDS011;2877;48.238;11.160;2022-08-05T12:33:51;2.97;;;1.97;;
5704;SDS011;2877;48.238;11.160;2022-08-05T12:36:18;1.53;;;1.43;;
5704;SDS011;2877;48.238;11.160;2022-08-05T12:38:45;2.20;;;1.70;;
5704;SDS011;2877;48.238;11.160;2022-08-05T12:41:11;3.57;;;1.73;;
5704;SDS011;2877;48.238;11.160;2022-08-05T12:43:50;4.30;;;1.97;;
5704;SDS011;2877;48.238;11.160;2022-08-05T12:46:19;1.90;;;1.80;;
5704;SDS011;2877;48.238;11.160;2022-08-05T12:48:45;1.90;;;1.80;;
5704;SDS011;2877;48.238;11.160;2022-08-05T12:51:12;7.20;;;2.10;;
5704;SDS011;2877;48.238;11.160;2022-08-05T12:53:42;2.60;;;2.20;;
5704;SDS011;2877;48.238;11.160;2022-08-05T12:56:21;7.10;;;1.93;;
5704;SDS011;2877;48.238;11.160;2022-08-05T12:59:09;3.90;;;1.70;;
5704;SDS011;2877;48.238;11.160;2022-08-05T13:01:41;1.37;;;1.37;;
5704;SDS011;2877;48.238;11.160;2022-08-05T13:04:08;2.43;;;1.50;;
5704;SDS011;2877;48.238;11.160;2022-08-05T13:06:37;1.70;;;1.60;;
5704;SDS011;2877;48.238;11.160;2022-08-05T13:09:08;1.87;;;1.30;;
5704;SDS011;2877;48.238;11.160;2022-08-05T13:11:36;1.63;;;1.50;;
5704;SDS011;2877;48.238;11.160;2022-08-05T13:16:45;1.70;;;1.60;;
5704;SDS011;2877;48.238;11.160;2022-08-05T13:19:22;2.27;;;1.73;;
5704;SDS011;2877;48.238;11.160;2022-08-05T13:21:52;4.15;;;1.38;;
5704;SDS011;2877;48.238;11.160;2022-08-05T13:24:19;1.55;;;1.40;;
5704;SDS011;2877;48.238;11.160;2022-08-05T13:26:46;1.30;;;1.30;;
5704;SDS011;2877;48.238;11.160;2022-08-05T13:29:13;3.35;;;1.30;;
5704;SDS011;2877;48.238;11.160;2022-08-05T13:31:39;1.48;;;1.38;;
5704;SDS011;2877;48.238;11.160;2022-08-05T13:34:05;1.58;;;1.45;;
5704;SDS011;2877;48.238;11.160;2022-08-05T13:36:31;1.30;;;1.30;;
5704;SDS011;2877;48.238;11.160;2022-08-05T13:38:58;2.08;;;1.00;;
5704;SDS011;2877;48.238;11.160;2022-08-05T13:41:24;1.70;;;1.15;;
5704;SDS011;2877;48.238;11.160;2022-08-05T13:43:49;1.73;;;1.48;;
5704;SDS011;2877;48.238;11.160;2022-08-05T13:46:15;1.20;;;1.20;;
5704;SDS011;2877;48.238;11.160;2022-08-05T13:48:41;1.95;;;1.42;;
5704;SDS011;2877;48.238;11.160;2022-08-05T13:51:07;1.10;;;1.10;;
5704;SDS011;2877;48.238;11.160;2022-08-05T13:53:33;1.98;;;1.50;;
5704;SDS011;2877;48.238;11.160;2022-08-05T13:56:00;1.48;;;1.40;;
5704;SDS011;2877;48.238;11.160;2022-08-05T13:58:26;1.65;;;1.55;;
5704;SDS011;2877;48.238;11.160;2022-08-05T14:00:52;3.17;;;1.30;;
5704;SDS011;2877;48.238;11.160;2022-08-05T14:03:17;2.80;;;1.77;;
5704;SDS011;2877;48.238;11.160;2022-08-05T14:05:43;3.30;;;2.20;;
5704;SDS011;2877;48.238;11.160;2022-08-05T14:08:08;1.52;;;1.42;;
5704;SDS011;2877;48.238;11.160;2022-08-05T14:10:34;1.77;;;1.67;;
5704;SDS011;2877;48.238;11.160;2022-08-05T14:12:59;3.83;;;1.40;;
5704;SDS011;2877;48.238;11.160;2022-08-05T14:15:25;1.42;;;1.33;;
5704;SDS011;2877;48.238;11.160;2022-08-05T14:21:14;1.55;;;1.45;;
5704;SDS011;2877;48.238;11.160;2022-08-05T14:23:39;8.88;;;1.70;;
5704;SDS011;2877;48.238;11.160;2022-08-05T14:26:05;5.22;;;1.48;;
5704;SDS011;2877;48.238;11.160;2022-08-05T14:28:30;1.30;;;1.20;;
5704;SDS011;2877;48.238;11.160;2022-08-05T14:30:56;3.42;;;1.30;;
5704;SDS011;2877;48.238;11.160;2022-08-05T14:33:22;2.97;;;1.50;;
5704;SDS011;2877;48.238;11.160;2022-08-05T14:35:48;1.75;;;1.45;;
5704;SDS011;2877;48.238;11.160;2022-08-05T14:38:14;2.45;;;1.60;;
5704;SDS011;2877;48.238;11.160;2022-08-05T14:40:39;1.90;;;1.80;;
5704;SDS011;2877;48.238;11.160;2022-08-05T14:43:05;2.60;;;1.40;;
5704;SDS011;2877;48.238;11.160;2022-08-05T14:45:30;2.00;;;1.40;;
5704;SDS011;2877;48.238;11.160;2022-08-05T14:47:56;2.87;;;1.97;;
5704;SDS011;2877;48.238;11.160;2022-08-05T14:50:21;1.75;;;1.65;;
5704;SDS011;2877;48.238;11.160;2022-08-05T14:52:47;1.90;;;1.58;;
5704;SDS011;2877;48.238;11.160;2022-08-05T14:55:12;2.55;;;1.40;;
5704;SDS011;2877;48.238;11.160;2022-08-05T14:57:38;2.65;;;1.48;;
5704;SDS011;2877;48.238;11.160;2022-08-05T15:00:04;1.50;;;1.40;;
5704;SDS011;2877;48.238;11.160;2022-08-05T15:02:31;2.80;;;2.20;;
5704;SDS011;2877;48.238;11.160;2022-08-05T15:04:57;7.40;;;2.27;;
5704;SDS011;2877;48.238;11.160;2022-08-05T15:07:22;3.07;;;2.40;;
5704;SDS011;2877;48.238;11.160;2022-08-05T15:09:48;6.40;;;2.40;;
5704;SDS011;2877;48.238;11.160;2022-08-05T15:12:13;3.00;;;1.80;;
5704;SDS011;2877;48.238;11.160;2022-08-05T15:14:39;5.07;;;2.47;;
5704;SDS011;2877;48.238;11.160;2022-08-05T15:17:04;4.80;;;2.00;;
5704;SDS011;2877;48.238;11.160;2022-08-05T15:19:30;3.47;;;2.27;;
5704;SDS011;2877;48.238;11.160;2022-08-05T15:21:56;4.70;;;2.50;;
5704;SDS011;2877;48.238;11.160;2022-08-05T15:24:22;2.73;;;2.53;;
5704;SDS011;2877;48.238;11.160;2022-08-05T15:26:47;2.30;;;2.20;;
5704;SDS011;2877;48.238;11.160;2022-08-05T15:29:13;4.67;;;2.63;;
5704;SDS011;2877;48.238;11.160;2022-08-05T15:31:38;3.50;;;2.30;;
5704;SDS011;2877;48.238;11.160;2022-08-05T15:34:04;2.30;;;2.20;;
5704;SDS011;2877;48.238;11.160;2022-08-05T15:36:29;2.20;;;2.10;;
5704;SDS011;2877;48.238;11.160;2022-08-05T15:38:55;3.37;;;2.37;;
5704;SDS011;2877;48.238;11.160;2022-08-05T15:41:21;2.60;;;2.50;;
5704;SDS011;2877;48.238;11.160;2022-08-05T15:43:48;2.80;;;2.60;;
5704;SDS011;2877;48.238;11.160;2022-08-05T15:46:14;2.80;;;2.37;;
5704;SDS011;2877;48.238;11.160;2022-08-05T15:48:39;2.60;;;2.40;;
5704;SDS011;2877;48.238;11.160;2022-08-05T15:51:05;2.90;;;2.33;;
5704;SDS011;2877;48.238;11.160;2022-08-05T15:53:30;4.60;;;2.27;;
5704;SDS011;2877;48.238;11.160;2022-08-05T15:55:56;2.43;;;2.13;;
5704;SDS011;2877;48.238;11.160;2022-08-05T15:58:21;2.63;;;2.43;;
5704;SDS011;2877;48.238;11.160;2022-08-05T16:00:47;5.70;;;2.33;;
5704;SDS011;2877;48.238;11.160;2022-08-05T16:03:12;2.40;;;2.30;;
5704;SDS011;2877;48.238;11.160;2022-08-05T16:05:38;5.53;;;2.50;;
5704;SDS011;2877;48.238;11.160;2022-08-05T16:08:03;2.60;;;2.40;;
5704;SDS011;2877;48.238;11.160;2022-08-05T16:10:29;2.33;;;2.20;;